Time;durP1;ratioP1;P1;durP2;ratioP2;P2;SDS_P1;SDS_P2;PMS_P1;PMS_P2;Temp;Humidity;BMP_temperature;BMP_pressure;BME280_temperature;BME280_humidity;BME280_pressure;Samples;Min_cycle;Max_cycle;Signal;HPM_P1;HPM_P2
2023/05/31 00:01:22;;;;;;;3.25;2.70;;;19.40;42.70;;;;;;5033284;28;20391;-70
2023/05/31 00:03:48;;;;;;;3.83;3.20;;;19.40;42.80;;;;;;5042949;28;20033;-70
2023/05/31 00:06:14;;;;;;;3.63;3.28;;;19.30;42.60;;;;;;5037598;28;20029;-67
2023/05/31 00:08:41;;;;;;;4.43;2.95;;;19.30;42.80;;;;;;5036876;28;20568;-66
2023/05/31 00:11:10;;;;;;;5.35;3.75;;;19.30;42.80;;;;;;5029734;28;20043;-67
2023/05/31 00:13:39;;;;;;;3.42;3.13;;;19.20;42.70;;;;;;5034929;28;20476;-71
2023/05/31 00:16:06;;;;;;;3.80;3.50;;;19.20;42.80;;;;;;5038221;28;20025;-71
2023/05/31 00:18:32;;;;;;;2.90;2.70;;;19.20;42.90;;;;;;5037333;28;20037;-71
2023/05/31 00:21:02;;;;;;;5.78;3.45;;;19.10;43.30;;;;;;5030110;28;20033;-73
2023/05/31 00:23:28;;;;;;;3.67;2.88;;;19.10;42.80;;;;;;5027285;28;20029;-72
2023/05/31 00:25:57;;;;;;;3.05;2.60;;;19.10;42.80;;;;;;5035972;28;20044;-70
2023/05/31 00:28:43;;;;;;;3.55;2.80;;;19.10;42.90;;;;;;5027568;28;20057;-71
2023/05/31 00:31:12;;;;;;;4.07;2.80;;;19.00;42.70;;;;;;5031459;28;20369;-70
2023/05/31 00:33:38;;;;;;;4.43;3.13;;;19.00;42.80;;;;;;5036260;28;20037;-71
2023/05/31 00:36:07;;;;;;;3.45;2.78;;;18.90;42.70;;;;;;5034441;28;20044;-70
2023/05/31 00:38:36;;;;;;;3.53;2.55;;;18.90;42.80;;;;;;5035620;28;20045;-71
2023/05/31 00:41:15;;;;;;;3.80;2.55;;;18.90;42.80;;;;;;5034461;28;20049;-70
2023/05/31 00:43:44;;;;;;;3.03;2.72;;;18.80;42.60;;;;;;5033440;28;20033;-70
2023/05/31 00:46:27;;;;;;;2.75;2.50;;;18.80;42.70;;;;;;5035963;28;20094;-69
2023/05/31 00:48:55;;;;;;;3.72;2.50;;;18.80;42.90;;;;;;5034361;28;20041;-69
2023/05/31 00:51:41;;;;;;;3.97;3.10;;;18.70;42.70;;;;;;5033572;28;20137;-73
2023/05/31 00:54:11;;;;;;;3.80;2.75;;;18.80;42.90;;;;;;5038595;28;20494;-70
2023/05/31 00:56:37;;;;;;;2.63;2.40;;;18.70;42.80;;;;;;5035927;28;20095;-70
2023/05/31 00:59:04;;;;;;;3.05;2.38;;;18.70;42.90;;;;;;5026806;28;20025;-72
2023/05/31 01:01:32;;;;;;;3.75;2.50;;;18.70;43.00;;;;;;5021311;28;20102;-70
2023/05/31 01:03:59;;;;;;;2.42;2.13;;;18.60;42.90;;;;;;5023120;28;20472;-70
2023/05/31 01:06:31;;;;;;;3.85;2.45;;;18.60;42.90;;;;;;5021488;28;20037;-69
2023/05/31 01:09:06;;;;;;;2.97;2.67;;;18.60;43.00;;;;;;5018742;28;20127;-70
2023/05/31 01:11:53;;;;;;;2.22;2.03;;;18.50;42.90;;;;;;5022446;28;20029;-68
2023/05/31 01:14:19;;;;;;;2.13;1.58;;;18.50;42.90;;;;;;5020607;28;20041;-71
2023/05/31 01:16:53;;;;;;;2.55;2.28;;;18.50;42.90;;;;;;5020689;28;20467;-70
2023/05/31 01:19:36;;;;;;;2.65;2.15;;;18.50;43.00;;;;;;5018510;28;20366;-72
2023/05/31 01:22:41;;;;;;;1.80;1.70;;;18.40;43.00;;;;;;5021578;28;20131;-69
2023/05/31 01:25:54;;;;;;;2.75;1.88;;;18.40;43.00;;;;;;5018250;28;20032;-72
2023/05/31 01:28:22;;;;;;;1.60;1.45;;;18.40;43.10;;;;;;5011184;28;20049;-71
2023/05/31 01:30:50;;;;;;;2.00;1.60;;;18.30;42.70;;;;;;5001536;23;20021;-69
2023/05/31 01:33:21;;;;;;;1.75;1.63;;;18.30;42.80;;;;;;5001593;28;20567;-68
2023/05/31 01:35:52;;;;;;;2.13;1.65;;;18.30;42.90;;;;;;5001959;28;20040;-69
2023/05/31 01:38:18;;;;;;;1.45;1.25;;;18.30;42.90;;;;;;5004697;28;20297;-69
2023/05/31 01:40:51;;;;;;;1.73;1.60;;;18.30;43.00;;;;;;5002968;28;20095;-69
2023/05/31 01:43:18;;;;;;;1.45;1.35;;;18.20;42.80;;;;;;5000785;28;20088;-68
2023/05/31 01:45:45;;;;;;;1.30;1.20;;;18.20;43.00;;;;;;5013155;23;20486;-85
2023/05/31 01:48:37;;;;;;;1.58;1.00;;;18.20;43.00;;;;;;4941888;28;20056;-86
2023/05/31 01:51:09;;;;;;;1.27;1.08;;;18.10;42.80;;;;;;4994906;28;20498;-85
2023/05/31 01:53:36;;;;;;;1.80;1.30;;;18.10;42.80;;;;;;4987207;28;20046;-85
2023/05/31 01:56:04;;;;;;;2.22;0.90;;;18.10;42.90;;;;;;4992335;28;20077;-85
2023/05/31 01:58:31;;;;;;;1.50;1.00;;;18.00;42.80;;;;;;4985515;28;20042;-85
2023/05/31 02:00:59;;;;;;;1.40;0.75;;;18.00;42.90;;;;;;4995842;28;20039;-84
2023/05/31 02:03:28;;;;;;;1.13;0.80;;;18.00;43.00;;;;;;4977745;28;20069;-83
2023/05/31 02:06:01;;;;;;;0.80;0.80;;;18.00;43.00;;;;;;4987703;28;20042;-85
2023/05/31 02:08:27;;;;;;;1.10;0.90;;;17.90;42.90;;;;;;4995327;28;20506;-83
2023/05/31 02:10:54;;;;;;;0.93;0.85;;;17.90;43.00;;;;;;4984564;28;20501;-83
2023/05/31 02:13:27;;;;;;;0.85;0.80;;;17.90;43.00;;;;;;4983691;28;21077;-83
2023/05/31 02:15:57;;;;;;;1.23;0.80;;;17.80;42.90;;;;;;4979711;28;20494;-83
2023/05/31 02:18:27;;;;;;;1.20;1.10;;;17.80;42.90;;;;;;4984988;28;20034;-83
2023/05/31 02:20:54;;;;;;;1.17;1.05;;;17.80;43.00;;;;;;4984661;28;20031;-84
2023/05/31 02:23:21;;;;;;;0.82;0.82;;;17.70;42.80;;;;;;4987308;28;20030;-83
2023/05/31 02:25:49;;;;;;;0.93;0.73;;;17.70;42.90;;;;;;4986541;28;20038;-85
2023/05/31 02:28:16;;;;;;;0.52;0.52;;;17.70;43.00;;;;;;4983071;28;20066;-86
2023/05/31 02:30:57;;;;;;;0.50;0.45;;;17.70;43.00;;;;;;4986089;28;20042;-83
2023/05/31 02:33:24;;;;;;;0.63;0.60;;;17.70;43.10;;;;;;4985384;28;20035;-81
2023/05/31 02:35:56;;;;;;;0.60;0.50;;;17.60;42.90;;;;;;4946773;28;20034;-81
2023/05/31 02:38:23;;;;;;;0.40;0.40;;;17.60;42.90;;;;;;4969409;28;20030;-81
2023/05/31 02:40:49;;;;;;;0.65;0.60;;;17.60;43.00;;;;;;4987170;28;20633;-82
2023/05/31 02:43:16;;;;;;;0.63;0.47;;;17.60;43.10;;;;;;4986289;28;20385;-81
2023/05/31 02:45:42;;;;;;;0.43;0.40;;;17.60;43.10;;;;;;4986439;28;20066;-81
2023/05/31 02:48:18;;;;;;;0.60;0.43;;;17.50;43.00;;;;;;4998227;28;20704;-83
2023/05/31 02:50:47;;;;;;;0.57;0.40;;;17.50;43.00;;;;;;4980043;28;20117;-84
2023/05/31 02:53:30;;;;;;;0.70;0.57;;;17.50;43.00;;;;;;4985186;28;20034;-83
2023/05/31 02:56:04;;;;;;;0.70;0.60;;;17.50;43.00;;;;;;4986537;28;20038;-83
2023/05/31 02:58:55;;;;;;;0.90;0.70;;;17.50;43.10;;;;;;4992101;28;20037;-83
2023/05/31 03:01:47;;;;;;;1.33;0.70;;;17.40;42.90;;;;;;4985107;28;20633;-82
2023/05/31 03:04:27;;;;;;;0.52;0.40;;;17.40;42.90;;;;;;4985825;28;20038;-81
2023/05/31 03:06:55;;;;;;;0.32;0.30;;;17.40;43.00;;;;;;4985560;28;20038;-83
2023/05/31 03:09:25;;;;;;;1.38;0.50;;;17.40;43.10;;;;;;4985743;28;20092;-82
2023/05/31 03:11:52;;;;;;;0.82;0.60;;;17.30;43.00;;;;;;4985234;28;20030;-83
2023/05/31 03:14:23;;;;;;;0.47;0.40;;;17.30;43.10;;;;;;4983206;28;20405;-84
2023/05/31 03:16:53;;;;;;;0.50;0.50;;;17.30;43.20;;;;;;4994530;28;20049;-84
2023/05/31 03:19:19;;;;;;;0.70;0.70;;;17.20;43.00;;;;;;4967039;28;20560;-83
2023/05/31 03:21:49;;;;;;;0.50;0.50;;;17.20;43.70;;;;;;4964981;28;20041;-84
2023/05/31 03:24:16;;;;;;;0.55;0.40;;;17.20;43.30;;;;;;4984510;28;20434;-82
2023/05/31 03:26:46;;;;;;;0.50;0.50;;;17.20;43.40;;;;;;4976793;28;20058;-83
2023/05/31 03:29:12;;;;;;;1.70;0.65;;;17.10;43.20;;;;;;4982368;28;20042;-85
2023/05/31 03:31:38;;;;;;;0.73;0.57;;;17.10;43.30;;;;;;4983879;28;20104;-83
2023/05/31 03:34:04;;;;;;;0.75;0.75;;;17.10;43.40;;;;;;4968870;28;20042;-81
2023/05/31 03:36:31;;;;;;;0.77;0.60;;;17.10;43.50;;;;;;4981789;28;20494;-81
2023/05/31 03:39:08;;;;;;;1.38;0.68;;;17.00;43.40;;;;;;4980081;28;20042;-84
2023/05/31 03:41:34;;;;;;;1.58;0.60;;;17.00;43.40;;;;;;4980252;28;20026;-85
2023/05/31 03:44:10;;;;;;;0.85;0.57;;;17.00;43.50;;;;;;4984292;28;20034;-84
2023/05/31 03:46:39;;;;;;;0.80;0.60;;;17.00;43.60;;;;;;4980827;28;20547;-83
2023/05/31 03:49:07;;;;;;;0.73;0.70;;;17.00;43.70;;;;;;4983604;28;20513;-82
2023/05/31 03:51:33;;;;;;;1.08;0.88;;;16.90;43.60;;;;;;4979829;28;20030;-83
2023/05/31 03:54:02;;;;;;;0.80;0.80;;;17.00;43.90;;;;;;4973752;28;20043;-81
2023/05/31 03:56:28;;;;;;;0.85;0.63;;;16.90;43.70;;;;;;4984414;28;20100;-81
2023/05/31 03:58:55;;;;;;;1.00;0.47;;;16.90;43.70;;;;;;4984095;28;20065;-81
2023/05/31 04:01:21;;;;;;;0.60;0.40;;;16.90;43.80;;;;;;4982472;28;20398;-81
2023/05/31 04:03:51;;;;;;;0.60;0.60;;;16.80;43.70;;;;;;4983613;28;20030;-81
2023/05/31 04:06:20;;;;;;;0.70;0.52;;;16.90;43.90;;;;;;4983677;28;20126;-82
2023/05/31 04:08:46;;;;;;;1.67;0.50;;;16.80;43.70;;;;;;4982717;28;20078;-82
2023/05/31 04:11:13;;;;;;;0.70;0.52;;;16.80;43.80;;;;;;4985745;28;20548;-81
2023/05/31 04:13:39;;;;;;;1.38;0.63;;;16.80;43.90;;;;;;4972409;28;20038;-83
2023/05/31 04:16:08;;;;;;;0.63;0.60;;;16.80;43.90;;;;;;4983838;28;20194;-81
2023/05/31 04:18:35;;;;;;;0.90;0.68;;;16.70;43.80;;;;;;4984010;28;20026;-83
2023/05/31 04:21:02;;;;;;;0.73;0.60;;;16.70;43.80;;;;;;4966204;28;20030;-82
2023/05/31 04:23:28;;;;;;;0.63;0.52;;;16.70;43.90;;;;;;4980409;28;20031;-82
2023/05/31 04:26:02;;;;;;;0.65;0.65;;;16.70;44.20;;;;;;4981241;28;20394;-81
2023/05/31 04:28:29;;;;;;;0.65;0.50;;;16.70;43.90;;;;;;4980779;28;20116;-82
2023/05/31 04:30:56;;;;;;;0.93;0.85;;;16.70;44.00;;;;;;4972326;28;20513;-82
2023/05/31 04:33:23;;;;;;;1.15;0.80;;;16.70;44.10;;;;;;4967091;28;20382;-83
2023/05/31 04:35:53;;;;;;;0.80;0.80;;;16.70;44.00;;;;;;4988703;28;20034;-84
2023/05/31 04:38:22;;;;;;;0.60;0.50;;;16.60;43.90;;;;;;4981943;28;20057;-82
2023/05/31 04:40:50;;;;;;;0.65;0.60;;;16.60;43.80;;;;;;4987780;28;20035;-82
2023/05/31 04:43:17;;;;;;;0.88;0.55;;;16.70;44.10;;;;;;4970128;28;20474;-82
2023/05/31 04:45:47;;;;;;;0.65;0.60;;;16.70;44.10;;;;;;4982977;28;20418;-81
2023/05/31 04:48:20;;;;;;;;;;;16.60;43.90;;;;;;4983854;28;20269;-83
2023/05/31 04:50:48;;;;;;;0.65;0.55;;;16.60;43.80;;;;;;4998542;28;19921;-82
2023/05/31 04:53:14;;;;;;;0.80;0.68;;;16.70;43.80;;;;;;4976592;28;20042;-84
2023/05/31 04:55:44;;;;;;;0.60;0.60;;;16.70;43.80;;;;;;4982384;28;20023;-82
2023/05/31 04:58:19;;;;;;;1.25;1.15;;;16.70;43.90;;;;;;4981725;28;20034;-82
2023/05/31 05:00:49;;;;;;;0.55;0.50;;;16.70;43.90;;;;;;4981159;28;20041;-83
2023/05/31 05:03:31;;;;;;;1.00;0.77;;;16.70;43.90;;;;;;4978920;28;20114;-83
2023/05/31 05:06:12;;;;;;;1.95;0.75;;;16.80;44.20;;;;;;4981672;28;20041;-82
2023/05/31 05:08:45;;;;;;;0.75;0.65;;;16.80;44.00;;;;;;4979782;28;20402;-81
2023/05/31 05:11:14;;;;;;;0.93;0.82;;;16.80;44.60;;;;;;4980073;28;20030;-89
2023/05/31 05:13:41;;;;;;;0.85;0.55;;;16.80;44.00;;;;;;4973680;28;20049;-87
2023/05/31 05:16:11;;;;;;;0.55;0.55;;;16.90;44.10;;;;;;4996848;28;20069;-86
2023/05/31 05:18:38;;;;;;;0.60;0.60;;;16.90;44.10;;;;;;4974880;28;20022;-84
2023/05/31 05:21:12;;;;;;;0.68;0.60;;;16.90;44.10;;;;;;4974794;28;20339;-89
2023/05/31 05:23:43;;;;;;;2.13;0.70;;;16.90;44.10;;;;;;4961492;28;20026;-88
2023/05/31 05:26:11;;;;;;;1.30;0.57;;;16.90;44.10;;;;;;4972437;28;20366;-88
2023/05/31 05:28:38;;;;;;;0.75;0.47;;;16.90;44.20;;;;;;4974328;28;20455;-86
2023/05/31 05:31:05;;;;;;;0.50;0.50;;;16.90;44.20;;;;;;4995524;28;20034;-87
2023/05/31 05:33:41;;;;;;;0.70;0.52;;;16.90;44.30;;;;;;4981520;28;20038;-86
2023/05/31 05:36:08;;;;;;;1.17;0.90;;;16.90;44.30;;;;;;4979156;28;20109;-89
2023/05/31 05:38:42;;;;;;;0.55;0.50;;;16.90;44.30;;;;;;4978672;28;20398;-91
2023/05/31 05:41:12;;;;;;;0.60;0.55;;;16.90;44.20;;;;;;4982128;28;20078;-87
2023/05/31 05:43:42;;;;;;;0.93;0.68;;;17.00;44.40;;;;;;4981021;28;20041;-90
2023/05/31 05:46:12;;;;;;;0.70;0.65;;;17.00;44.50;;;;;;4977503;28;20069;-86
2023/05/31 05:48:48;;;;;;;0.95;0.95;;;17.10;44.90;;;;;;4978402;28;20220;-84
2023/05/31 05:51:19;;;;;;;0.60;0.60;;;17.10;45.00;;;;;;4974926;28;20035;-80
2023/05/31 05:53:45;;;;;;;1.13;0.60;;;17.20;45.30;;;;;;4974117;28;20584;-87
2023/05/31 05:56:13;;;;;;;3.25;0.70;;;17.20;45.40;;;;;;4981824;28;20041;-89
2023/05/31 05:58:48;;;;;;;0.60;0.60;;;17.20;45.50;;;;;;4963941;28;20482;-85
2023/05/31 06:01:35;;;;;;;1.83;0.70;;;17.30;45.80;;;;;;4978887;28;20164;-83
2023/05/31 06:04:02;;;;;;;0.73;0.70;;;17.30;45.80;;;;;;4977236;28;20045;-84
2023/05/31 06:06:28;;;;;;;0.68;0.65;;;17.40;45.90;;;;;;4971677;28;20026;-84
2023/05/31 06:08:54;;;;;;;0.73;0.52;;;17.40;45.90;;;;;;4963291;28;20495;-84
2023/05/31 06:11:22;;;;;;;1.27;0.70;;;17.50;46.10;;;;;;4975463;28;20128;-82
2023/05/31 06:13:49;;;;;;;0.70;0.70;;;17.50;46.20;;;;;;4971085;28;20301;-83
2023/05/31 06:16:21;;;;;;;0.82;0.80;;;17.60;46.30;;;;;;4970599;28;20616;-82
2023/05/31 06:18:50;;;;;;;1.83;0.52;;;17.60;46.30;;;;;;4968666;28;20540;-83
2023/05/31 06:21:19;;;;;;;0.70;0.70;;;17.60;46.30;;;;;;4960690;28;20034;-83
2023/05/31 06:23:46;;;;;;;0.63;0.63;;;17.70;46.50;;;;;;4975507;28;20064;-87
2023/05/31 06:26:12;;;;;;;2.25;1.25;;;17.80;46.70;;;;;;4979818;28;20362;-91
2023/05/31 06:28:38;;;;;;;0.95;0.85;;;17.80;46.70;;;;;;4973618;28;20502;-88
2023/05/31 06:31:13;;;;;;;0.75;0.70;;;17.90;46.90;;;;;;4969126;28;20056;-85
2023/05/31 06:33:39;;;;;;;0.90;0.70;;;18.00;46.90;;;;;;4975002;28;20038;-83
2023/05/31 06:36:08;;;;;;;1.98;0.88;;;18.10;47.00;;;;;;4976876;28;20230;-84
2023/05/31 06:38:38;;;;;;;1.80;0.60;;;18.20;47.00;;;;;;4972562;28;20034;-86
2023/05/31 06:41:13;;;;;;;0.70;0.70;;;18.30;47.10;;;;;;4980323;28;20033;-85
2023/05/31 06:43:40;;;;;;;0.60;0.50;;;18.30;47.00;;;;;;4968450;28;20138;-86
2023/05/31 06:46:09;;;;;;;0.52;0.35;;;18.30;47.00;;;;;;4977281;28;20497;-86
2023/05/31 06:48:54;;;;;;;2.05;0.75;;;18.40;47.70;;;;;;4974205;28;20089;-84
2023/05/31 06:51:49;;;;;;;0.80;0.70;;;18.50;47.10;;;;;;4992344;28;20060;-87
2023/05/31 06:54:38;;;;;;;1.10;1.00;;;18.50;47.00;;;;;;4980016;28;20050;-90
2023/05/31 06:57:05;;;;;;;0.85;0.50;;;18.60;47.10;;;;;;4974604;28;20056;-92
2023/05/31 06:59:31;;;;;;;0.40;0.40;;;18.70;47.30;;;;;;4976002;28;20038;-88
2023/05/31 07:01:58;;;;;;;0.95;0.40;;;18.70;47.10;;;;;;4963566;28;20051;-92
2023/05/31 07:04:24;;;;;;;1.75;0.40;;;18.80;47.20;;;;;;4982637;28;20270;-92
2023/05/31 07:06:50;;;;;;;0.63;0.60;;;18.90;47.30;;;;;;4969385;28;20042;-90
2023/05/31 07:09:17;;;;;;;0.40;0.40;;;19.00;47.30;;;;;;4980807;28;20046;-91
2023/05/31 07:12:01;;;;;;;0.55;0.40;;;19.20;47.40;;;;;;4971264;28;20204;-87
2023/05/31 07:14:30;;;;;;;1.15;0.60;;;19.30;47.50;;;;;;4959311;28;20423;-86
2023/05/31 07:16:56;;;;;;;0.77;0.60;;;19.40;47.90;;;;;;4982085;28;20218;-90
2023/05/31 07:19:23;;;;;;;2.10;0.57;;;19.50;48.20;;;;;;4983524;28;20038;-90
2023/05/31 07:21:51;;;;;;;0.57;0.45;;;19.60;48.40;;;;;;4989127;28;20026;-89
2023/05/31 07:24:18;;;;;;;0.50;0.50;;;19.80;48.90;;;;;;4979073;28;20093;-86
2023/05/31 07:26:50;;;;;;;1.23;0.50;;;19.90;48.90;;;;;;4981083;28;20038;-91
2023/05/31 07:29:16;;;;;;;0.93;0.70;;;20.00;49.00;;;;;;4980061;28;20381;-89
2023/05/31 07:31:44;;;;;;;0.63;0.40;;;20.10;49.00;;;;;;4990569;28;20474;-91
2023/05/31 07:34:11;;;;;;;1.20;0.65;;;20.20;49.20;;;;;;4981609;28;20125;-90
2023/05/31 07:36:41;;;;;;;0.85;0.40;;;20.20;49.20;;;;;;5000414;28;20038;-87
2023/05/31 07:39:10;;;;;;;1.25;0.65;;;20.30;49.40;;;;;;4986067;28;20743;-93
2023/05/31 07:41:37;;;;;;;0.43;0.43;;;20.30;49.40;;;;;;4981312;28;20117;-85
2023/05/31 07:44:05;;;;;;;0.50;0.40;;;20.30;49.60;;;;;;4980703;28;20060;-86
2023/05/31 07:46:31;;;;;;;2.05;0.68;;;20.70;49.90;;;;;;4986432;28;20585;-90
2023/05/31 07:48:57;;;;;;;1.25;0.50;;;21.00;49.40;;;;;;4978491;28;20054;-86
2023/05/31 07:51:23;;;;;;;2.35;0.63;;;21.00;49.00;;;;;;4979416;28;20088;-88
2023/05/31 07:53:49;;;;;;;0.50;0.47;;;21.00;48.80;;;;;;4979734;28;20453;-85
2023/05/31 07:56:18;;;;;;;0.60;0.40;;;20.90;48.60;;;;;;4978210;28;20493;-88
2023/05/31 07:58:44;;;;;;;0.35;0.30;;;20.80;48.40;;;;;;4970500;28;20169;-86
2023/05/31 08:01:10;;;;;;;0.57;0.40;;;20.70;48.30;;;;;;4977784;28;20051;-87
2023/05/31 08:03:36;;;;;;;0.40;0.40;;;20.50;48.00;;;;;;4977144;28;20031;-89
2023/05/31 08:06:02;;;;;;;0.30;0.30;;;20.50;48.00;;;;;;4979253;28;20375;-87
2023/05/31 08:08:32;;;;;;;0.85;0.55;;;20.50;48.00;;;;;;4975191;28;20046;-87
2023/05/31 08:11:02;;;;;;;0.55;0.40;;;20.50;47.80;;;;;;4983022;28;20398;-90
2023/05/31 08:13:30;;;;;;;0.38;0.38;;;20.50;47.60;;;;;;4983060;28;20061;-89
2023/05/31 08:15:56;;;;;;;1.27;0.38;;;20.50;47.40;;;;;;4983615;28;20390;-89
2023/05/31 08:18:29;;;;;;;0.70;0.40;;;20.50;47.30;;;;;;4995952;28;20059;-91
2023/05/31 08:20:55;;;;;;;0.98;0.40;;;20.50;47.20;;;;;;4988812;28;20085;-93
2023/05/31 08:23:22;;;;;;;0.70;0.38;;;20.50;47.10;;;;;;4981301;28;20058;-90
2023/05/31 08:25:50;;;;;;;0.50;0.50;;;20.50;47.00;;;;;;4984757;28;20046;-89
2023/05/31 08:28:17;;;;;;;0.40;0.40;;;20.40;46.70;;;;;;4980117;28;20481;-83
2023/05/31 08:30:43;;;;;;;1.75;0.45;;;20.50;46.80;;;;;;4975804;28;20285;-85
2023/05/31 08:33:09;;;;;;;0.85;0.43;;;20.50;46.60;;;;;;4974856;28;20498;-90
2023/05/31 08:35:35;;;;;;;0.57;0.40;;;20.50;46.50;;;;;;4983811;28;20061;-89
2023/05/31 08:38:04;;;;;;;0.55;0.52;;;20.50;46.40;;;;;;4989909;28;20038;-91
2023/05/31 08:40:31;;;;;;;0.75;0.45;;;20.60;46.40;;;;;;4985673;28;20041;-90
2023/05/31 08:43:07;;;;;;;0.70;0.60;;;20.70;46.40;;;;;;4966840;28;20042;-89
2023/05/31 08:45:50;;;;;;;0.50;0.43;;;20.70;46.30;;;;;;4982530;28;20046;-92
2023/05/31 08:48:30;;;;;;;0.45;0.30;;;20.70;46.00;;;;;;4982880;28;20038;-89
2023/05/31 08:50:57;;;;;;;0.60;0.60;;;20.70;45.90;;;;;;4980662;28;20038;-90
2023/05/31 08:53:29;;;;;;;0.40;0.40;;;20.80;45.90;;;;;;4982449;28;20041;-92
2023/05/31 08:55:57;;;;;;;0.70;0.50;;;20.80;45.80;;;;;;4987709;28;20409;-93
2023/05/31 08:58:24;;;;;;;5.82;0.60;;;20.90;45.80;;;;;;4986224;28;20037;-91
2023/05/31 09:00:54;;;;;;;0.40;0.40;;;21.00;45.80;;;;;;4984083;28;20026;-90
2023/05/31 09:03:22;;;;;;;0.55;0.38;;;21.10;45.80;;;;;;4989337;28;20039;-91
2023/05/31 09:05:51;;;;;;;0.40;0.40;;;21.10;45.70;;;;;;4991249;28;20042;-91
2023/05/31 09:08:23;;;;;;;0.70;0.60;;;21.10;45.50;;;;;;4977270;28;20465;-92
2023/05/31 09:10:55;;;;;;;0.40;0.40;;;21.20;45.60;;;;;;4984417;28;20037;-89
2023/05/31 09:13:21;;;;;;;0.35;0.35;;;21.20;45.50;;;;;;4977641;28;20038;-92
2023/05/31 09:15:52;;;;;;;0.45;0.30;;;21.30;45.60;;;;;;4982883;28;20038;-91
2023/05/31 09:18:21;;;;;;;0.45;0.45;;;21.30;45.40;;;;;;4980448;28;20390;-89
2023/05/31 09:20:55;;;;;;;0.40;0.40;;;21.40;45.50;;;;;;4976624;28;20041;-84
2023/05/31 09:23:21;;;;;;;0.43;0.40;;;21.40;45.40;;;;;;4976945;28;20100;-86
2023/05/31 09:25:55;;;;;;;0.63;0.43;;;21.40;45.20;;;;;;4979054;28;20422;-83
2023/05/31 09:28:30;;;;;;;0.43;0.43;;;21.50;45.30;;;;;;4979145;28;20070;-84
2023/05/31 09:31:08;;;;;;;0.80;0.50;;;21.50;45.20;;;;;;4980068;28;20188;-85
2023/05/31 09:33:39;;;;;;;0.40;0.40;;;21.50;45.10;;;;;;4982991;28;20137;-88
2023/05/31 09:36:05;;;;;;;0.50;0.50;;;21.50;45.10;;;;;;4982574;28;20038;-87
2023/05/31 09:38:34;;;;;;;0.50;0.50;;;21.50;45.00;;;;;;4988384;28;20030;-91
2023/05/31 09:41:13;;;;;;;0.50;0.50;;;21.50;45.00;;;;;;4976863;28;20078;-92
2023/05/31 09:43:45;;;;;;;0.60;0.60;;;21.50;45.00;;;;;;4977053;28;20145;-93
2023/05/31 09:46:21;;;;;;;0.80;0.50;;;21.50;45.00;;;;;;4987326;28;20470;-93
2023/05/31 09:49:03;;;;;;;0.57;0.57;;;21.50;45.00;;;;;;4991030;28;20042;-94
2023/05/31 09:51:33;;;;;;;1.75;0.85;;;21.60;45.00;;;;;;4988585;28;20140;-94
2023/05/31 09:54:14;;;;;;;0.50;0.50;;;21.70;45.10;;;;;;4981966;28;20031;-92
2023/05/31 09:56:41;;;;;;;0.57;0.57;;;21.70;44.90;;;;;;4967962;28;20039;-94
2023/05/31 09:59:08;;;;;;;0.68;0.68;;;21.90;45.20;;;;;;4989576;28;20034;-94
2023/05/31 10:01:37;;;;;;;1.15;0.60;;;21.90;45.70;;;;;;4995867;28;20461;-93
2023/05/31 10:04:05;;;;;;;0.40;0.40;;;22.00;45.00;;;;;;4976404;28;20038;-92
2023/05/31 10:06:35;;;;;;;1.02;0.65;;;22.10;45.00;;;;;;4983684;28;20134;-90
2023/05/31 10:09:05;;;;;;;0.60;0.60;;;22.10;45.00;;;;;;4981436;28;20034;-92
2023/05/31 10:11:53;;;;;;;0.90;0.80;;;22.20;45.00;;;;;;4994296;28;20497;-93
2023/05/31 10:14:26;;;;;;;0.60;0.60;;;22.30;45.10;;;;;;4986997;28;20041;-92
2023/05/31 10:16:57;;;;;;;0.70;0.70;;;22.40;45.00;;;;;;4985513;28;20027;-92
2023/05/31 10:19:30;;;;;;;0.90;0.88;;;22.60;45.20;;;;;;4984387;28;20100;-91
2023/05/31 10:22:00;;;;;;;0.75;0.60;;;22.70;45.10;;;;;;4985534;28;20061;-92
2023/05/31 10:24:35;;;;;;;0.85;0.55;;;22.80;45.00;;;;;;4978618;28;20045;-90
2023/05/31 10:27:11;;;;;;;1.05;0.85;;;23.00;45.20;;;;;;4967714;28;20097;-89
2023/05/31 10:29:54;;;;;;;1.55;0.80;;;23.10;45.20;;;;;;4977962;28;20470;-94
2023/05/31 10:32:40;;;;;;;0.60;0.60;;;23.30;45.20;;;;;;4989601;28;20401;-91
2023/05/31 10:35:08;;;;;;;0.60;0.50;;;23.60;45.30;;;;;;4984824;28;20048;-93
2023/05/31 10:37:34;;;;;;;1.20;0.60;;;23.90;45.40;;;;;;4985103;28;20041;-93
2023/05/31 10:40:07;;;;;;;1.15;0.80;;;24.10;45.40;;;;;;4973477;28;20137;-87
2023/05/31 10:42:50;;;;;;;0.40;0.40;;;24.20;45.20;;;;;;4981248;28;20472;-89
2023/05/31 10:45:30;;;;;;;1.63;0.90;;;24.40;45.20;;;;;;4979543;28;20156;-85
2023/05/31 10:48:51;;;;;;;0.50;0.50;;;24.60;45.20;;;;;;4934247;28;20066;-86
2023/05/31 10:51:18;;;;;;;2.17;0.80;;;25.00;45.50;;;;;;4980739;28;20042;-82
2023/05/31 10:53:46;;;;;;;0.43;0.40;;;25.30;45.10;;;;;;4978901;28;20181;-90
2023/05/31 10:56:18;;;;;;;0.55;0.55;;;25.50;44.80;;;;;;4977913;28;20201;-89
2023/05/31 10:58:48;;;;;;;1.65;0.75;;;25.70;44.60;;;;;;4984584;28;20061;-88
2023/05/31 11:01:22;;;;;;;0.75;0.60;;;25.80;44.40;;;;;;4976933;28;20038;-88
2023/05/31 11:03:50;;;;;;;1.05;0.70;;;25.80;44.30;;;;;;4979442;28;20093;-87
2023/05/31 11:06:28;;;;;;;2.50;1.23;;;25.90;44.20;;;;;;4980248;28;20038;-85
2023/05/31 11:09:05;;;;;;;0.95;0.70;;;26.10;44.10;;;;;;4974889;28;20050;-87
2023/05/31 11:11:31;;;;;;;1.02;0.45;;;26.30;43.90;;;;;;4975509;28;20038;-84
2023/05/31 11:14:07;;;;;;;0.82;0.80;;;26.40;43.70;;;;;;4968759;28;20108;-82
2023/05/31 11:16:46;;;;;;;2.67;0.75;;;26.50;43.40;;;;;;4972443;28;20046;-83
2023/05/31 11:19:34;;;;;;;1.33;0.60;;;26.70;43.30;;;;;;4987940;28;20575;-87
2023/05/31 11:22:03;;;;;;;0.85;0.70;;;26.80;43.20;;;;;;4986530;28;20041;-91
2023/05/31 11:24:29;;;;;;;2.25;0.80;;;26.90;42.90;;;;;;4981546;28;20502;-85
2023/05/31 11:27:11;;;;;;;1.17;0.85;;;27.00;42.80;;;;;;4982660;28;20045;-91
2023/05/31 11:29:46;;;;;;;2.30;0.70;;;27.40;42.60;;;;;;4975890;28;20159;-90
2023/05/31 11:32:14;;;;;;;2.00;0.70;;;27.70;42.10;;;;;;4977223;28;20054;-90
2023/05/31 11:34:56;;;;;;;1.65;0.98;;;28.00;41.90;;;;;;4976465;28;20072;-89
2023/05/31 11:37:26;;;;;;;0.85;0.70;;;28.10;41.50;;;;;;4980130;28;20030;-91
2023/05/31 11:39:54;;;;;;;1.63;0.70;;;28.30;41.40;;;;;;4977804;28;20141;-90
2023/05/31 11:42:23;;;;;;;1.63;0.90;;;28.40;41.20;;;;;;4969618;28;20205;-90
2023/05/31 11:44:55;;;;;;;1.63;0.90;;;28.60;41.00;;;;;;4975677;28;20053;-88
2023/05/31 11:47:29;;;;;;;1.10;0.80;;;28.70;40.80;;;;;;4976833;28;20042;-82
2023/05/31 11:49:57;;;;;;;1.20;0.70;;;28.80;40.60;;;;;;4975611;28;20113;-86
2023/05/31 11:52:23;;;;;;;1.50;0.88;;;28.90;40.50;;;;;;4970814;28;20113;-86
2023/05/31 11:54:49;;;;;;;1.40;0.73;;;28.90;40.40;;;;;;4975285;28;20440;-84
2023/05/31 11:57:22;;;;;;;1.77;1.10;;;29.00;40.30;;;;;;4974721;28;20076;-83
2023/05/31 11:59:51;;;;;;;1.15;0.80;;;29.30;40.20;;;;;;4972493;28;20046;-88
2023/05/31 12:02:18;;;;;;;1.05;0.93;;;29.50;39.90;;;;;;4975918;28;20041;-87
2023/05/31 12:04:44;;;;;;;1.05;0.90;;;29.50;39.70;;;;;;4979353;28;21107;-88
2023/05/31 12:07:19;;;;;;;1.15;0.82;;;29.50;39.50;;;;;;4974129;28;20114;-86
2023/05/31 12:09:46;;;;;;;2.97;0.93;;;29.60;39.30;;;;;;4981392;28;20042;-87
2023/05/31 12:12:12;;;;;;;3.08;1.25;;;29.70;39.40;;;;;;4980614;28;20026;-87
2023/05/31 12:14:48;;;;;;;1.27;1.00;;;29.80;39.40;;;;;;4984840;28;20052;-88
2023/05/31 12:17:14;;;;;;;1.15;1.00;;;29.90;39.30;;;;;;4984839;28;20050;-87
2023/05/31 12:19:40;;;;;;;0.85;0.73;;;30.10;39.10;;;;;;4986438;28;20087;-90
2023/05/31 12:22:09;;;;;;;1.48;1.10;;;30.40;38.90;;;;;;4981551;28;20125;-88
2023/05/31 12:24:37;;;;;;;1.33;1.10;;;30.80;38.60;;;;;;4982177;28;20538;-89
2023/05/31 12:27:10;;;;;;;1.80;1.70;;;30.90;38.10;;;;;;4981383;28;20065;-88
2023/05/31 12:29:39;;;;;;;1.70;0.90;;;31.00;38.10;;;;;;4973826;28;20445;-86
2023/05/31 12:32:11;;;;;;;1.65;0.90;;;31.00;38.00;;;;;;4979303;28;20026;-92
2023/05/31 12:34:38;;;;;;;2.90;1.05;;;31.00;38.00;;;;;;4982412;28;20041;-88
2023/05/31 12:37:10;;;;;;;1.30;0.82;;;30.90;38.00;;;;;;4978925;28;20030;-87
2023/05/31 12:39:37;;;;;;;1.13;1.00;;;30.80;38.00;;;;;;4982594;28;20056;-88
2023/05/31 12:42:07;;;;;;;3.53;1.23;;;30.80;38.10;;;;;;4979680;28;20418;-85
2023/05/31 12:44:43;;;;;;;1.50;0.88;;;30.80;38.10;;;;;;4979221;28;20050;-88
2023/05/31 12:47:09;;;;;;;2.70;1.20;;;30.80;38.10;;;;;;4975577;28;20042;-83
2023/05/31 12:49:37;;;;;;;2.05;1.75;;;30.80;38.00;;;;;;4975577;28;20168;-83
2023/05/31 12:52:08;;;;;;;0.82;0.80;;;30.70;37.90;;;;;;4977707;28;20034;-84
2023/05/31 12:54:38;;;;;;;1.17;0.80;;;30.60;37.80;;;;;;4977040;28;20118;-85
2023/05/31 12:57:06;;;;;;;1.92;0.80;;;30.70;37.80;;;;;;4981907;28;20108;-88
2023/05/31 12:59:33;;;;;;;1.88;1.38;;;30.60;37.60;;;;;;4981638;28;20026;-89
2023/05/31 13:01:59;;;;;;;1.27;1.10;;;30.60;37.80;;;;;;4982531;28;20046;-88
2023/05/31 13:04:29;;;;;;;2.40;0.90;;;30.70;37.80;;;;;;4987157;28;20128;-90
2023/05/31 13:06:58;;;;;;;1.38;1.13;;;30.90;37.60;;;;;;4983993;28;20030;-90